createdAt,value
2022-11-27T00:00:02.940Z,1003.55
2022-11-27T00:01:04.701Z,1003.55
2022-11-27T00:02:06.466Z,1003.54
2022-11-27T00:03:08.287Z,1003.52
2022-11-27T00:04:09.985Z,1003.54
2022-11-27T00:05:11.603Z,1003.53
2022-11-27T00:06:13.399Z,1003.51
2022-11-27T00:07:15.174Z,1003.56
2022-11-27T00:08:16.800Z,1003.52
2022-11-27T00:09:18.540Z,1003.5
2022-11-27T00:10:20.266Z,1003.48
2022-11-27T00:11:22.017Z,1003.41
2022-11-27T00:12:23.747Z,1003.42
2022-11-27T00:13:25.479Z,1003.37
2022-11-27T00:14:27.209Z,1003.3
2022-11-27T00:15:28.948Z,1003.32
2022-11-27T00:16:30.810Z,1003.29
2022-11-27T00:17:32.413Z,1003.25
2022-11-27T00:18:34.146Z,1003.25
2022-11-27T00:19:35.873Z,1003.28
2022-11-27T00:20:37.619Z,1003.27
2022-11-27T00:21:39.347Z,1003.27
2022-11-27T00:22:41.084Z,1003.25
2022-11-27T00:23:42.841Z,1003.14
2022-11-27T00:24:44.545Z,1003.25
2022-11-27T00:25:46.265Z,1003.2
2022-11-27T00:26:48.041Z,1003.18
2022-11-27T00:27:49.810Z,1003.16
2022-11-27T00:28:51.503Z,1003.15
2022-11-27T00:29:53.231Z,1003.08
2022-11-27T00:30:55.047Z,1003.07
2022-11-27T00:31:56.730Z,1003.1
2022-11-27T00:32:58.460Z,1003.1
2022-11-27T00:34:00.159Z,1003.11
2022-11-27T00:35:01.864Z,1003.06
2022-11-27T00:36:03.624Z,1003.06
2022-11-27T00:37:05.352Z,1003.09
2022-11-27T00:38:07.085Z,1003.05
2022-11-27T00:39:08.827Z,1003.04
2022-11-27T00:40:10.600Z,1003.08
2022-11-27T00:41:12.270Z,1003
2022-11-27T00:42:14.010Z,1003.01
2022-11-27T00:43:15.742Z,1003.05
2022-11-27T00:44:17.482Z,1003.01
2022-11-27T00:45:19.208Z,1002.97
2022-11-27T00:46:26.661Z,1002.98
2022-11-27T00:47:22.689Z,1003.01
2022-11-27T00:48:24.415Z,1003
2022-11-27T00:49:26.155Z,1003.05
2022-11-27T00:50:27.870Z,1003.02
2022-11-27T00:51:29.708Z,1003.07
2022-11-27T00:52:31.350Z,1003
2022-11-27T00:53:33.075Z,1003.02
2022-11-27T00:54:34.817Z,1002.99
2022-11-27T00:55:36.539Z,1002.97
2022-11-27T00:56:38.282Z,1002.98
2022-11-27T00:57:40.010Z,1002.95
2022-11-27T00:58:41.744Z,1002.95
2022-11-27T00:59:43.476Z,1002.97
2022-11-27T01:00:45.221Z,1002.94
2022-11-27T01:01:47.096Z,1002.95
2022-11-27T01:02:49.865Z,1002.89
2022-11-27T01:03:50.426Z,1002.92
2022-11-27T01:04:52.154Z,1002.87
2022-11-27T01:05:53.882Z,1002.83
2022-11-27T01:06:55.628Z,1002.84
2022-11-27T01:07:57.398Z,1002.84
2022-11-27T01:08:59.078Z,1002.83
2022-11-27T01:10:00.819Z,1002.83
2022-11-27T01:11:02.552Z,1002.9
2022-11-27T01:12:04.330Z,1002.86
2022-11-27T01:13:06.016Z,1002.89
2022-11-27T01:14:07.759Z,1002.89
2022-11-27T01:15:09.483Z,1002.92
2022-11-27T01:16:11.257Z,1002.86
2022-11-27T01:17:12.958Z,1002.86
2022-11-27T01:18:14.675Z,1002.81
2022-11-27T01:19:16.418Z,1002.83
2022-11-27T01:20:18.151Z,1002.88
2022-11-27T01:21:19.924Z,1002.82
2022-11-27T01:22:21.659Z,1002.85
2022-11-27T01:23:23.369Z,1002.73
2022-11-27T01:24:25.080Z,1002.81
2022-11-27T01:25:27.156Z,1002.8
2022-11-27T01:26:28.555Z,1002.75
2022-11-27T01:27:30.277Z,1002.82
2022-11-27T01:28:32.101Z,1002.81
2022-11-27T01:29:33.736Z,1002.8
2022-11-27T01:30:35.483Z,1002.76
2022-11-27T01:31:37.294Z,1002.78
2022-11-27T01:32:38.967Z,1002.81
2022-11-27T01:33:40.676Z,1002.79
2022-11-27T01:34:42.640Z,1002.75
2022-11-27T01:35:44.145Z,1002.74
2022-11-27T01:36:45.872Z,1002.75
2022-11-27T01:37:47.630Z,1002.75
2022-11-27T01:38:49.362Z,1002.75
2022-11-27T01:39:51.078Z,1002.74
2022-11-27T01:40:52.829Z,1002.73
2022-11-27T01:41:54.576Z,1002.75
2022-11-27T01:42:56.305Z,1002.78
2022-11-27T01:43:58.022Z,1002.76
2022-11-27T01:44:59.758Z,1002.81
2022-11-27T01:46:01.544Z,1002.78
2022-11-27T01:47:03.213Z,1002.73
2022-11-27T01:48:04.944Z,1002.69
2022-11-27T01:49:06.701Z,1002.7
2022-11-27T01:50:08.416Z,1002.7
2022-11-27T01:51:10.230Z,1002.69
2022-11-27T01:52:12.974Z,1002.7
2022-11-27T01:53:13.675Z,1002.68
2022-11-27T01:54:15.402Z,1002.66
2022-11-27T01:55:17.155Z,1002.68
2022-11-27T01:56:18.855Z,1002.67
2022-11-27T01:57:20.628Z,1002.64
2022-11-27T01:58:22.336Z,1002.62
2022-11-27T01:59:24.133Z,1002.68
2022-11-27T02:00:27.138Z,1002.64
2022-11-27T02:01:27.657Z,1002.68
2022-11-27T02:02:29.415Z,1002.69
2022-11-27T02:03:31.031Z,1002.7
2022-11-27T02:04:32.765Z,1002.7
2022-11-27T02:05:34.494Z,1002.7
2022-11-27T02:06:36.193Z,1002.66
2022-11-27T02:07:38.021Z,1002.66
2022-11-27T02:08:39.691Z,1002.63
2022-11-27T02:09:41.423Z,1002.64
2022-11-27T02:10:43.118Z,1002.6
2022-11-27T02:11:44.870Z,1002.6
2022-11-27T02:12:46.635Z,1002.54
2022-11-27T02:13:48.348Z,1002.46
2022-11-27T02:14:50.100Z,1002.52
2022-11-27T02:15:51.890Z,1002.46
2022-11-27T02:16:53.540Z,1002.45
2022-11-27T02:17:55.299Z,1002.5
2022-11-27T02:18:57.035Z,1002.56
2022-11-27T02:19:58.749Z,1002.56
2022-11-27T02:21:00.470Z,1002.59
2022-11-27T02:22:02.195Z,1002.6
2022-11-27T02:23:03.972Z,1002.63
2022-11-27T02:24:05.690Z,1002.57
2022-11-27T02:25:07.438Z,1002.58
2022-11-27T02:26:09.130Z,1002.6
2022-11-27T02:27:10.870Z,1002.59
2022-11-27T02:28:12.607Z,1002.58
2022-11-27T02:29:14.343Z,1002.58
2022-11-27T02:30:16.056Z,1002.53
2022-11-27T02:31:17.931Z,1002.5
2022-11-27T02:32:19.567Z,1002.5
2022-11-27T02:33:21.302Z,1002.47
2022-11-27T02:34:23.021Z,1002.39
2022-11-27T02:35:24.758Z,1002.39
2022-11-27T02:36:26.469Z,1002.38
2022-11-27T02:37:28.233Z,1002.34
2022-11-27T02:38:29.975Z,1002.29
2022-11-27T02:39:31.668Z,1002.32
2022-11-27T02:40:33.446Z,1002.36
2022-11-27T02:41:35.137Z,1002.3
2022-11-27T02:42:36.902Z,1002.32
2022-11-27T02:43:38.589Z,1002.26
2022-11-27T02:44:40.447Z,1002.26
2022-11-27T02:45:42.063Z,1002.31
2022-11-27T02:46:43.905Z,1002.26
2022-11-27T02:47:45.528Z,1002.24
2022-11-27T02:48:47.302Z,1002.23
2022-11-27T02:49:48.999Z,1002.28
2022-11-27T02:50:50.732Z,1002.28
2022-11-27T02:51:52.475Z,1002.24
2022-11-27T02:52:54.225Z,1002.23
2022-11-27T02:53:55.937Z,1002.22
2022-11-27T02:54:57.685Z,1002.26
2022-11-27T02:55:59.439Z,1002.27
2022-11-27T02:57:01.163Z,1002.26
2022-11-27T02:58:02.878Z,1002.27
2022-11-27T02:59:04.635Z,1002.26
2022-11-27T03:00:06.358Z,1002.27
2022-11-27T03:01:08.105Z,1002.28
2022-11-27T03:02:09.915Z,1002.31
2022-11-27T03:03:11.676Z,1002.29
2022-11-27T03:04:13.306Z,1002.3
2022-11-27T03:05:15.003Z,1002.25
2022-11-27T03:06:16.726Z,1002.24
2022-11-27T03:07:18.609Z,1002.2
2022-11-27T03:08:20.202Z,1002.23
2022-11-27T03:09:21.955Z,1002.16
2022-11-27T03:10:23.675Z,1002.15
2022-11-27T03:11:25.404Z,1002.13
2022-11-27T03:12:27.167Z,1002.08
2022-11-27T03:13:28.867Z,1002.06
2022-11-27T03:14:30.603Z,1002.06
2022-11-27T03:15:32.333Z,1001.96
2022-11-27T03:16:34.189Z,1001.99
2022-11-27T03:17:35.799Z,1001.89
2022-11-27T03:18:37.558Z,1001.89
2022-11-27T03:19:39.296Z,1001.92
2022-11-27T03:20:41.021Z,1001.89
2022-11-27T03:21:42.726Z,1001.85
2022-11-27T03:22:44.471Z,1001.87
2022-11-27T03:23:46.232Z,1001.91
2022-11-27T03:24:47.959Z,1001.93
2022-11-27T03:25:49.669Z,1001.92
2022-11-27T03:26:51.397Z,1001.91
2022-11-27T03:27:53.134Z,1001.92
2022-11-27T03:28:54.875Z,1001.91
2022-11-27T03:29:56.601Z,1001.91
2022-11-27T03:30:58.352Z,1001.91
2022-11-27T03:32:00.009Z,1001.9
2022-11-27T03:33:01.748Z,1001.85
2022-11-27T03:34:03.524Z,1001.89
2022-11-27T03:35:05.250Z,1001.87
2022-11-27T03:36:06.939Z,1001.82
2022-11-27T03:37:08.699Z,1001.84
2022-11-27T03:38:10.476Z,1001.82
2022-11-27T03:39:12.128Z,1001.79
2022-11-27T03:40:13.856Z,1001.74
2022-11-27T03:41:15.602Z,1001.73
2022-11-27T03:42:17.308Z,1001.68
2022-11-27T03:43:19.025Z,1001.72
2022-11-27T03:44:20.793Z,1001.73
2022-11-27T03:45:22.519Z,1001.7
2022-11-27T03:46:24.313Z,1001.68
2022-11-27T03:47:26.087Z,1001.73
2022-11-27T03:48:27.703Z,1001.71
2022-11-27T03:49:29.491Z,1001.7
2022-11-27T03:50:31.249Z,1001.7
2022-11-27T03:51:32.948Z,1001.7
2022-11-27T03:52:34.708Z,1001.67
2022-11-27T03:53:36.415Z,1001.7
2022-11-27T03:54:38.493Z,1001.74
2022-11-27T03:55:39.922Z,1001.7
2022-11-27T03:56:41.645Z,1001.74
2022-11-27T03:57:43.357Z,1001.74
2022-11-27T03:58:45.104Z,1001.71
2022-11-27T03:59:46.810Z,1001.74
2022-11-27T04:00:48.513Z,1001.76
2022-11-27T04:01:50.431Z,1001.77
2022-11-27T04:02:51.939Z,1001.77
2022-11-27T04:03:53.710Z,1001.69
2022-11-27T04:04:55.381Z,1001.68
2022-11-27T04:05:57.124Z,1001.66
2022-11-27T04:06:58.844Z,1001.76
2022-11-27T04:08:00.579Z,1001.68
2022-11-27T04:09:02.388Z,1001.66
2022-11-27T04:10:04.047Z,1001.67
2022-11-27T04:11:07.093Z,1001.73
2022-11-27T04:12:07.574Z,1001.72
2022-11-27T04:13:09.317Z,1001.63
2022-11-27T04:14:11.023Z,1001.63
2022-11-27T04:15:12.788Z,1001.6
2022-11-27T04:16:14.573Z,1001.58
2022-11-27T04:17:16.213Z,1001.53
2022-11-27T04:18:17.992Z,1001.48
2022-11-27T04:19:19.717Z,1001.46
2022-11-27T04:20:21.461Z,1001.46
2022-11-27T04:21:23.137Z,1001.4
2022-11-27T04:22:24.921Z,1001.39
2022-11-27T04:23:26.658Z,1001.4
2022-11-27T04:24:28.385Z,1001.34
2022-11-27T04:25:30.101Z,1001.29
2022-11-27T04:26:31.802Z,1001.32
2022-11-27T04:27:33.586Z,1001.29
2022-11-27T04:28:35.271Z,1001.3
2022-11-27T04:29:37.005Z,1001.31
2022-11-27T04:30:38.771Z,1001.33
2022-11-27T04:31:40.647Z,1001.32
2022-11-27T04:32:42.239Z,1001.31
2022-11-27T04:33:43.944Z,1001.33
2022-11-27T04:34:46.014Z,1001.35
2022-11-27T04:35:47.401Z,1001.3
2022-11-27T04:36:49.155Z,1001.29
2022-11-27T04:37:50.870Z,1001.36
2022-11-27T04:38:52.629Z,1001.41
2022-11-27T04:39:54.319Z,1001.35
2022-11-27T04:40:56.094Z,1001.36
2022-11-27T04:41:57.800Z,1001.38
2022-11-27T04:42:59.557Z,1001.45
2022-11-27T04:44:01.254Z,1001.42
2022-11-27T04:45:02.983Z,1001.42
2022-11-27T04:46:04.754Z,1001.43
2022-11-27T04:47:06.507Z,1001.5
2022-11-27T04:48:08.203Z,1001.48
2022-11-27T04:49:09.942Z,1001.49
2022-11-27T04:50:11.642Z,1001.45
2022-11-27T04:51:13.377Z,1001.44
2022-11-27T04:52:15.070Z,1001.47
2022-11-27T04:53:16.789Z,1001.49
2022-11-27T04:54:18.531Z,1001.51
2022-11-27T04:55:20.261Z,1001.5
2022-11-27T04:56:22.039Z,1001.5
2022-11-27T04:57:23.729Z,1001.57
2022-11-27T04:58:25.468Z,1001.53
2022-11-27T04:59:27.238Z,1001.56
2022-11-27T05:00:29.022Z,1001.56
2022-11-27T05:01:30.738Z,1001.54
2022-11-27T05:02:32.432Z,1001.55
2022-11-27T05:03:34.142Z,1001.56
2022-11-27T05:04:35.860Z,1001.56
2022-11-27T05:05:37.608Z,1001.56
2022-11-27T05:06:39.339Z,1001.57
2022-11-27T05:07:41.137Z,1001.51
2022-11-27T05:08:42.805Z,1001.5
2022-11-27T05:09:44.543Z,1001.48
2022-11-27T05:10:46.323Z,1001.47
2022-11-27T05:11:48.022Z,1001.5
2022-11-27T05:12:49.755Z,1001.47
2022-11-27T05:13:51.467Z,1001.49
2022-11-27T05:14:53.204Z,1001.48
2022-11-27T05:15:54.974Z,1001.5
2022-11-27T05:16:56.680Z,1001.45
2022-11-27T05:17:58.404Z,1001.44
2022-11-27T05:19:00.137Z,1001.37
2022-11-27T05:20:01.879Z,1001.35
2022-11-27T05:21:03.617Z,1001.34
2022-11-27T05:22:05.348Z,1001.3
2022-11-27T05:23:07.073Z,1001.32
2022-11-27T05:24:08.807Z,1001.33
2022-11-27T05:25:10.551Z,1001.34
2022-11-27T05:26:12.275Z,1001.42
2022-11-27T05:27:14.038Z,1001.36
2022-11-27T05:28:15.724Z,1001.34
2022-11-27T05:29:17.467Z,1001.28
2022-11-27T05:30:19.230Z,1001.27
2022-11-27T05:31:21.017Z,1001.24
2022-11-27T05:32:22.674Z,1001.24
2022-11-27T05:33:24.415Z,1001.22
2022-11-27T05:34:26.149Z,1001.2
2022-11-27T05:35:27.912Z,1001.26
2022-11-27T05:36:29.614Z,1001.21
2022-11-27T05:37:31.342Z,1001.2
2022-11-27T05:38:33.083Z,1001.22
2022-11-27T05:39:34.805Z,1001.23
2022-11-27T05:40:36.527Z,1001.19
2022-11-27T05:41:38.275Z,1001.2
2022-11-27T05:42:40.009Z,1001.21
2022-11-27T05:43:41.737Z,1001.12
2022-11-27T05:44:43.588Z,1001.12
2022-11-27T05:45:45.203Z,1001.13
2022-11-27T05:46:46.996Z,1001.19
2022-11-27T05:47:48.684Z,1001.14
2022-11-27T05:48:50.404Z,1001.13
2022-11-27T05:49:52.175Z,1001.13
2022-11-27T05:50:53.854Z,1001.14
2022-11-27T05:51:55.601Z,1001.18
2022-11-27T05:52:57.325Z,1001.21
2022-11-27T05:53:59.064Z,1001.2
2022-11-27T05:55:00.850Z,1001.25
2022-11-27T05:56:02.571Z,1001.25
2022-11-27T05:57:04.301Z,1001.18
2022-11-27T05:58:06.003Z,1001.21
2022-11-27T05:59:07.760Z,1001.17
2022-11-27T06:00:09.471Z,1001.11
2022-11-27T06:01:11.202Z,1001.13
2022-11-27T06:02:20.006Z,1001.16
2022-11-27T06:03:14.725Z,1001.11
2022-11-27T06:04:16.402Z,1001.18
2022-11-27T06:05:18.179Z,1001.14
2022-11-27T06:06:19.876Z,1001.14
2022-11-27T06:07:21.625Z,1001.16
2022-11-27T06:08:23.339Z,1001.17
2022-11-27T06:09:25.072Z,1001.25
2022-11-27T06:10:26.848Z,1001.17
2022-11-27T06:11:28.578Z,1001.16
2022-11-27T06:12:30.270Z,1001.08
2022-11-27T06:13:31.993Z,1001.1
2022-11-27T06:14:33.730Z,1001.06
2022-11-27T06:15:35.505Z,1001.08
2022-11-27T06:16:37.292Z,1001.02
2022-11-27T06:17:38.986Z,1001.04
2022-11-27T06:18:40.663Z,1000.94
2022-11-27T06:19:42.390Z,1000.89
2022-11-27T06:20:46.011Z,1000.89
2022-11-27T06:21:45.868Z,1000.83
2022-11-27T06:22:47.605Z,1000.84
2022-11-27T06:23:49.339Z,1000.84
2022-11-27T06:24:51.056Z,1000.85
2022-11-27T06:25:52.807Z,1000.86
2022-11-27T06:26:54.529Z,1000.85
2022-11-27T06:27:56.269Z,1000.85
2022-11-27T06:28:57.997Z,1000.82
2022-11-27T06:29:59.757Z,1000.8
2022-11-27T06:31:01.460Z,1000.82
2022-11-27T06:32:03.284Z,1000.78
2022-11-27T06:33:04.925Z,1000.74
2022-11-27T06:34:06.694Z,1000.76
2022-11-27T06:35:08.399Z,1000.77
2022-11-27T06:36:10.178Z,1000.74
2022-11-27T06:37:13.172Z,1000.75
2022-11-27T06:38:13.589Z,1000.71
2022-11-27T06:39:15.329Z,1000.75
2022-11-27T06:40:17.106Z,1000.73
2022-11-27T06:41:18.858Z,1000.67
2022-11-27T06:42:20.559Z,1000.74
2022-11-27T06:43:22.294Z,1000.75
2022-11-27T06:44:23.986Z,1000.78
2022-11-27T06:45:25.765Z,1000.79
2022-11-27T06:46:27.510Z,1000.87
2022-11-27T06:47:29.188Z,1000.91
2022-11-27T06:48:30.927Z,1000.88
2022-11-27T06:49:32.667Z,1000.92
2022-11-27T06:50:34.396Z,1000.88
2022-11-27T06:51:36.125Z,1000.9
2022-11-27T06:52:40.632Z,1000.86
2022-11-27T06:53:39.636Z,1000.82
2022-11-27T06:54:41.541Z,1000.85
2022-11-27T06:55:43.069Z,1000.89
2022-11-27T06:56:44.783Z,1000.88
2022-11-27T06:57:46.536Z,1000.9
2022-11-27T06:58:48.258Z,1000.9
2022-11-27T06:59:49.994Z,1000.93
2022-11-27T07:00:51.744Z,1000.93
2022-11-27T07:01:53.516Z,1000.87
2022-11-27T07:02:55.197Z,1000.82
2022-11-27T07:03:56.933Z,1000.7
2022-11-27T07:04:58.699Z,1000.66
2022-11-27T07:06:00.393Z,1000.62
2022-11-27T07:07:02.136Z,1000.54
2022-11-27T07:08:03.941Z,1000.6
2022-11-27T07:09:05.602Z,1000.61
2022-11-27T07:10:07.330Z,1000.7
2022-11-27T07:11:09.052Z,1000.7
2022-11-27T07:12:10.803Z,1000.72
2022-11-27T07:13:12.526Z,1000.65
2022-11-27T07:14:14.264Z,1000.69
2022-11-27T07:15:16.004Z,1000.71
2022-11-27T07:16:17.821Z,1000.7
2022-11-27T07:17:19.461Z,1000.7
2022-11-27T07:18:21.195Z,1000.64
2022-11-27T07:19:22.935Z,1000.67
2022-11-27T07:20:24.651Z,1000.63
2022-11-27T07:21:26.394Z,1000.64
2022-11-27T07:22:28.129Z,1000.6
2022-11-27T07:23:29.899Z,1000.59
2022-11-27T07:24:31.595Z,1000.62
2022-11-27T07:25:33.334Z,1000.65
2022-11-27T07:26:35.101Z,1000.61
2022-11-27T07:27:36.812Z,1000.64
2022-11-27T07:28:38.542Z,1000.62
2022-11-27T07:29:40.264Z,1000.59
2022-11-27T07:30:41.997Z,1000.58
2022-11-27T07:31:43.763Z,1000.49
2022-11-27T07:32:45.469Z,1000.45
2022-11-27T07:33:47.187Z,1000.35
2022-11-27T07:34:48.965Z,1000.33
2022-11-27T07:35:50.661Z,1000.28
2022-11-27T07:36:52.389Z,1000.22
2022-11-27T07:37:54.135Z,1000.22
2022-11-27T07:38:55.866Z,1000.21
2022-11-27T07:40:02.428Z,1000.17
2022-11-27T07:40:59.336Z,1000.19
2022-11-27T07:42:16.752Z,1000.17
2022-11-27T07:43:02.795Z,1000.21
2022-11-27T07:44:04.528Z,1000.22
2022-11-27T07:45:06.262Z,1000.29
2022-11-27T07:46:08.032Z,1000.26
2022-11-27T07:47:09.711Z,1000.26
2022-11-27T07:48:11.333Z,1000.19
2022-11-27T07:49:13.074Z,1000.12
2022-11-27T07:50:14.817Z,1000.12
2022-11-27T07:51:16.582Z,1000.13
2022-11-27T07:52:18.275Z,1000.17
2022-11-27T07:53:20.015Z,1000.27
2022-11-27T07:54:21.738Z,1000.31
2022-11-27T07:55:23.476Z,1000.35
2022-11-27T07:56:25.224Z,1000.37
2022-11-27T07:57:26.947Z,1000.4
2022-11-27T07:58:28.717Z,1000.35
2022-11-27T07:59:30.448Z,1000.3
2022-11-27T08:00:32.144Z,1000.36
2022-11-27T08:01:33.959Z,1000.47
2022-11-27T08:02:35.637Z,1000.48
2022-11-27T08:03:37.362Z,1000.47
2022-11-27T08:04:39.415Z,1000.54
2022-11-27T08:05:40.851Z,1000.55
2022-11-27T08:06:42.540Z,1000.55
2022-11-27T08:07:44.360Z,1000.5
2022-11-27T08:08:46.041Z,1000.45
2022-11-27T08:09:47.789Z,1000.43
2022-11-27T08:10:49.539Z,1000.33
2022-11-27T08:12:11.830Z,1000.26
2022-11-27T08:13:13.625Z,1000.26
2022-11-27T08:14:15.352Z,1000.23
2022-11-27T08:15:17.090Z,1000.27
2022-11-27T08:16:18.894Z,1000.32
2022-11-27T08:17:20.562Z,1000.4
2022-11-27T08:18:22.284Z,1000.44
2022-11-27T08:19:23.993Z,1000.41
2022-11-27T08:20:25.767Z,1000.44
2022-11-27T08:21:27.468Z,1000.34
2022-11-27T08:22:29.158Z,1000.35
2022-11-27T08:23:30.949Z,1000.3
2022-11-27T08:24:32.665Z,1000.28
2022-11-27T08:25:35.760Z,1000.21
2022-11-27T08:27:23.166Z,1000.27
2022-11-27T08:28:23.272Z,1000.24
2022-11-27T08:29:23.683Z,1000.29
2022-11-27T08:30:25.500Z,1000.27
2022-11-27T08:31:30.057Z,1000.3
2022-11-27T08:48:11.493Z,1000.17
2022-11-27T08:49:13.246Z,1000.17
2022-11-27T08:50:14.922Z,1000.16
2022-11-27T08:51:16.694Z,1000.14
2022-11-27T08:52:18.433Z,1000.17
2022-11-27T08:53:24.745Z,1000.15
2022-11-27T08:55:23.300Z,1000.12
2022-11-27T08:56:25.087Z,1000.05
2022-11-27T08:57:42.239Z,1000.06
2022-11-27T08:58:43.935Z,1000.01
2022-11-27T08:59:45.708Z,1000.07
2022-11-27T09:00:46.187Z,1000.07
2022-11-27T09:01:47.831Z,1000.06
2022-11-27T09:04:12.738Z,1000.04
2022-11-27T09:05:29.857Z,1000.05
2022-11-27T09:07:17.237Z,1000.08
2022-11-27T09:08:18.863Z,999.96
2022-11-27T09:10:11.950Z,999.99
2022-11-27T09:11:21.587Z,999.98
2022-11-27T09:13:32.428Z,999.92
2022-11-27T09:14:34.161Z,999.91
2022-11-27T09:15:46.354Z,999.92
2022-11-27T09:16:48.196Z,999.89
2022-11-27T09:17:49.706Z,999.96
2022-11-27T09:18:51.445Z,1000
2022-11-27T09:20:49.339Z,1000.01
2022-11-27T09:21:51.066Z,1000.03
2022-11-27T09:22:52.810Z,1000.06
2022-11-27T09:23:54.599Z,1000.05
2022-11-27T09:25:00.219Z,1000.05
2022-11-27T09:26:00.905Z,1000.1
2022-11-27T09:27:02.692Z,1000.05
2022-11-27T09:28:15.075Z,1000.04
2022-11-27T09:29:16.446Z,999.97
2022-11-27T09:30:18.189Z,999.92
2022-11-27T09:31:21.323Z,999.88
2022-11-27T09:32:24.520Z,999.77
2022-11-27T09:33:24.629Z,999.83
2022-11-27T09:34:25.031Z,999.82
2022-11-27T09:35:39.505Z,999.82
2022-11-27T09:37:50.204Z,999.76
2022-11-27T09:39:02.761Z,999.71
2022-11-27T09:40:07.503Z,999.72
2022-11-27T09:41:12.170Z,999.74
2022-11-27T09:42:12.558Z,999.7
2022-11-27T09:43:32.768Z,999.68
2022-11-27T09:45:17.988Z,999.66
2022-11-27T09:46:28.718Z,999.64
2022-11-27T09:47:31.740Z,999.65
2022-11-27T09:48:32.675Z,999.67
2022-11-27T09:49:53.406Z,999.64
2022-11-27T09:52:16.673Z,999.62
2022-11-27T09:53:28.680Z,999.59
2022-11-27T09:54:34.376Z,999.62
2022-11-27T09:55:35.270Z,999.53
2022-11-27T09:56:37.008Z,999.61
2022-11-27T09:57:38.722Z,999.57
2022-11-27T09:58:40.466Z,999.56
2022-11-27T09:59:42.194Z,999.5
2022-11-27T10:00:43.952Z,999.53
2022-11-27T10:01:50.594Z,999.56
2022-11-27T10:02:47.562Z,999.53
2022-11-27T10:03:49.163Z,999.52
2022-11-27T10:05:12.937Z,999.54
2022-11-27T10:05:52.590Z,999.54
2022-11-27T10:06:54.328Z,999.54
2022-11-27T10:07:56.538Z,999.52
2022-11-27T10:08:57.792Z,999.55
2022-11-27T10:09:59.555Z,999.53
2022-11-27T10:11:01.264Z,999.49
2022-11-27T10:12:03.035Z,999.53
2022-11-27T10:13:04.728Z,999.45
2022-11-27T10:14:06.470Z,999.47
2022-11-27T10:15:08.197Z,999.48
2022-11-27T10:16:09.986Z,999.43
2022-11-27T10:17:11.773Z,999.42
2022-11-27T10:18:13.398Z,999.42
2022-11-27T10:19:15.122Z,999.34
2022-11-27T10:20:16.856Z,999.37
2022-11-27T10:21:18.593Z,999.31
2022-11-27T10:22:21.378Z,999.24
2022-11-27T10:23:22.047Z,999.21
2022-11-27T10:24:51.255Z,999.11
2022-11-27T10:25:52.981Z,999.05
2022-11-27T10:28:06.155Z,998.88
2022-11-27T10:29:14.064Z,998.82
2022-11-27T10:36:56.799Z,998.76
2022-11-27T10:41:49.942Z,998.66
2022-11-27T10:42:52.287Z,998.73
2022-11-27T10:43:52.290Z,998.74
2022-11-27T10:44:54.040Z,998.75
2022-11-27T10:45:55.802Z,998.74
2022-11-27T10:46:57.562Z,998.79
2022-11-27T10:47:59.280Z,998.68
2022-11-27T10:49:01.030Z,998.65
2022-11-27T10:50:02.799Z,998.57
2022-11-27T10:51:03.809Z,998.6
2022-11-27T10:52:06.260Z,998.65
2022-11-27T10:53:10.282Z,998.72
2022-11-27T10:54:14.911Z,998.75
2022-11-27T10:55:16.686Z,998.71
2022-11-27T10:57:19.897Z,998.73
2022-11-27T10:58:21.673Z,998.67
2022-11-27T10:59:39.691Z,998.68
2022-11-27T11:00:41.483Z,998.66
2022-11-27T11:01:43.333Z,998.66
2022-11-27T11:02:44.971Z,998.62
2022-11-27T11:03:49.436Z,998.42
2022-11-27T11:05:16.238Z,998.53
2022-11-27T11:06:19.340Z,998.48
2022-11-27T11:06:57.064Z,998.43
2022-11-27T11:07:58.846Z,998.42
2022-11-27T11:09:01.522Z,998.39
2022-11-27T11:10:02.233Z,998.36
2022-11-27T11:11:03.936Z,998.31
2022-11-27T11:12:05.717Z,998.33
2022-11-27T11:13:07.454Z,998.3
2022-11-27T11:14:09.180Z,998.26
2022-11-27T11:15:10.875Z,998.27
2022-11-27T11:16:14.922Z,998.25
2022-11-27T11:17:14.382Z,998.2
2022-11-27T11:18:16.087Z,998.12
2022-11-27T11:19:18.085Z,998.12
2022-11-27T11:20:19.524Z,998.04
2022-11-27T11:21:21.285Z,998.04
2022-11-27T11:22:23.061Z,998.08
2022-11-27T11:23:24.748Z,998.18
2022-11-27T11:24:26.527Z,998.21
2022-11-27T11:25:28.253Z,998.23
2022-11-27T11:26:29.933Z,998.23
2022-11-27T11:27:31.665Z,998.31
2022-11-27T11:28:39.209Z,998.31
2022-11-27T11:29:35.162Z,998.26
2022-11-27T11:30:36.866Z,998.25
2022-11-27T11:31:38.739Z,998.12
2022-11-27T11:32:40.394Z,998.07
2022-11-27T11:33:42.076Z,998.06
2022-11-27T11:34:43.836Z,998.1
2022-11-27T11:35:45.540Z,998.15
2022-11-27T11:36:47.267Z,998.1
2022-11-27T11:37:49.006Z,998.13
2022-11-27T11:38:50.778Z,998.08
2022-11-27T11:39:52.474Z,998.15
2022-11-27T11:40:54.217Z,998.19
2022-11-27T11:41:55.979Z,998.11
2022-11-27T11:42:57.700Z,998.13
2022-11-27T11:43:59.406Z,998.17
2022-11-27T11:45:01.178Z,998.2
2022-11-27T11:46:04.371Z,998.14
2022-11-27T11:47:04.630Z,998.16
2022-11-27T11:48:42.194Z,998.21
2022-11-27T11:51:27.847Z,998.01
2022-11-27T11:52:29.888Z,997.98
2022-11-27T11:54:10.179Z,997.9
2022-11-27T11:55:17.266Z,997.89
2022-11-27T12:02:28.627Z,997.72
2022-11-27T12:04:48.554Z,997.64
2022-11-27T12:08:24.866Z,997.56
2022-11-27T12:09:27.115Z,997.54
2022-11-27T12:10:29.834Z,997.51
2022-11-27T12:11:35.039Z,997.55
2022-11-27T12:12:37.499Z,997.53
2022-11-27T12:13:40.559Z,997.48
2022-11-27T12:14:45.285Z,997.49
2022-11-27T12:15:46.826Z,997.53
2022-11-27T12:17:02.973Z,997.55
2022-11-27T12:18:03.547Z,997.58
2022-11-27T12:19:03.782Z,997.59
2022-11-27T12:20:05.550Z,997.55
2022-11-27T12:21:07.265Z,997.47
2022-11-27T12:22:09.065Z,997.45
2022-11-27T12:23:28.655Z,997.39
2022-11-27T12:24:29.047Z,997.34
2022-11-27T12:25:32.191Z,997.3
2022-11-27T12:26:32.538Z,997.25
2022-11-27T12:27:34.264Z,997.33
2022-11-27T12:28:36.026Z,997.34
2022-11-27T12:29:52.700Z,997.23
2022-11-27T12:30:58.953Z,997.23
2022-11-27T12:31:59.349Z,997.28
2022-11-27T12:33:08.566Z,997.22
2022-11-27T12:34:13.288Z,997.27
2022-11-27T12:37:14.318Z,997.26
2022-11-27T12:38:52.501Z,997.21
2022-11-27T12:39:53.619Z,997.22
2022-11-27T12:40:56.032Z,997.2
2022-11-27T12:42:01.990Z,997.17
2022-11-27T12:43:09.416Z,997.13
2022-11-27T12:44:15.253Z,997.18
2022-11-27T12:45:37.552Z,997.05
2022-11-27T12:47:06.700Z,997.03
2022-11-27T12:48:11.858Z,997.01
2022-11-27T12:49:14.076Z,996.98
2022-11-27T12:50:14.555Z,997.07
2022-11-27T12:51:16.313Z,997.18
2022-11-27T12:52:18.003Z,997.16
2022-11-27T12:53:35.631Z,997.08
2022-11-27T12:54:36.320Z,997.05
2022-11-27T12:55:36.642Z,997.04
2022-11-27T12:56:38.352Z,996.97
2022-11-27T12:57:40.110Z,997
2022-11-27T12:58:41.812Z,996.99
2022-11-27T12:59:43.562Z,997.01
2022-11-27T13:00:45.345Z,997
2022-11-27T13:01:47.158Z,996.99
2022-11-27T13:02:48.845Z,997
2022-11-27T13:03:50.498Z,996.97
2022-11-27T13:04:52.224Z,996.94
2022-11-27T13:05:54.000Z,996.93
2022-11-27T13:06:55.708Z,996.91
2022-11-27T13:07:57.477Z,996.88
2022-11-27T13:08:59.142Z,996.92
2022-11-27T13:10:00.883Z,996.94
2022-11-27T13:11:02.621Z,996.99
2022-11-27T13:12:04.408Z,996.94
2022-11-27T13:14:53.948Z,996.92
2022-11-27T13:15:55.718Z,996.86
2022-11-27T13:16:57.466Z,996.89
2022-11-27T13:17:59.143Z,996.83
2022-11-27T13:19:00.942Z,996.82
2022-11-27T13:20:02.618Z,996.87
2022-11-27T13:21:04.352Z,996.91
2022-11-27T13:22:06.079Z,996.87
2022-11-27T13:23:07.826Z,996.91
2022-11-27T13:24:09.547Z,996.95
2022-11-27T13:25:11.272Z,996.94
2022-11-27T13:26:13.005Z,996.87
2022-11-27T13:27:14.752Z,996.82
2022-11-27T13:28:16.481Z,996.74
2022-11-27T13:29:18.210Z,996.68
2022-11-27T13:30:19.946Z,996.6
2022-11-27T13:31:21.729Z,996.6
2022-11-27T13:32:23.411Z,996.57
2022-11-27T13:33:25.149Z,996.6
2022-11-27T13:34:26.876Z,996.56
2022-11-27T13:35:28.622Z,996.56
2022-11-27T13:36:35.741Z,996.48
2022-11-27T13:37:32.072Z,996.44
2022-11-27T13:38:33.815Z,996.41